sensor_id;sensor_type;location;lat;lon;timestamp;P1;durP1;ratioP1;P2;durP2;ratioP2
13439;SDS011;6792;57.698;11.946;2022-08-04T00:01:07;10.90;;;3.40;;
13439;SDS011;6792;57.698;11.946;2022-08-04T00:03:42;9.35;;;3.42;;
13439;SDS011;6792;57.698;11.946;2022-08-04T00:06:20;10.88;;;3.20;;
13439;SDS011;6792;57.698;11.946;2022-08-04T00:08:51;8.60;;;3.05;;
13439;SDS011;6792;57.698;11.946;2022-08-04T00:11:25;10.50;;;3.25;;
13439;SDS011;6792;57.698;11.946;2022-08-04T00:13:59;12.90;;;3.75;;
13439;SDS011;6792;57.698;11.946;2022-08-04T00:16:34;9.60;;;2.70;;
13439;SDS011;6792;57.698;11.946;2022-08-04T00:19:09;12.47;;;3.52;;
13439;SDS011;6792;57.698;11.946;2022-08-04T00:21:40;11.30;;;3.70;;
13439;SDS011;6792;57.698;11.946;2022-08-04T00:24:10;17.80;;;3.58;;
13439;SDS011;6792;57.698;11.946;2022-08-04T00:26:41;8.13;;;3.45;;
13439;SDS011;6792;57.698;11.946;2022-08-04T00:29:11;10.25;;;2.83;;
13439;SDS011;6792;57.698;11.946;2022-08-04T00:31:41;9.13;;;3.15;;
13439;SDS011;6792;57.698;11.946;2022-08-04T00:34:11;7.65;;;3.37;;
13439;SDS011;6792;57.698;11.946;2022-08-04T00:36:43;9.60;;;2.95;;
13439;SDS011;6792;57.698;11.946;2022-08-04T00:39:18;9.50;;;2.80;;
13439;SDS011;6792;57.698;11.946;2022-08-04T00:41:52;9.53;;;3.37;;
13439;SDS011;6792;57.698;11.946;2022-08-04T00:44:36;10.63;;;3.25;;
13439;SDS011;6792;57.698;11.946;2022-08-04T00:47:14;8.45;;;3.25;;
13439;SDS011;6792;57.698;11.946;2022-08-04T00:53:00;11.93;;;3.12;;
13439;SDS011;6792;57.698;11.946;2022-08-04T00:58:54;9.33;;;3.10;;
13439;SDS011;6792;57.698;11.946;2022-08-04T01:01:35;9.33;;;3.52;;
13439;SDS011;6792;57.698;11.946;2022-08-04T01:04:15;11.35;;;3.33;;
13439;SDS011;6792;57.698;11.946;2022-08-04T01:06:49;9.20;;;3.40;;
13439;SDS011;6792;57.698;11.946;2022-08-04T01:09:29;13.85;;;3.37;;
13439;SDS011;6792;57.698;11.946;2022-08-04T01:12:11;11.15;;;3.52;;
13439;SDS011;6792;57.698;11.946;2022-08-04T01:15:09;11.65;;;3.87;;
13439;SDS011;6792;57.698;11.946;2022-08-04T01:17:42;11.25;;;3.27;;
13439;SDS011;6792;57.698;11.946;2022-08-04T01:20:20;11.00;;;4.15;;
13439;SDS011;6792;57.698;11.946;2022-08-04T01:23:08;8.00;;;3.00;;
13439;SDS011;6792;57.698;11.946;2022-08-04T01:26:17;12.85;;;3.50;;
13439;SDS011;6792;57.698;11.946;2022-08-04T01:29:07;14.28;;;4.17;;
13439;SDS011;6792;57.698;11.946;2022-08-04T01:31:41;12.68;;;3.42;;
13439;SDS011;6792;57.698;11.946;2022-08-04T01:34:19;10.50;;;3.42;;
13439;SDS011;6792;57.698;11.946;2022-08-04T01:36:57;11.83;;;3.65;;
13439;SDS011;6792;57.698;11.946;2022-08-04T01:39:32;12.18;;;3.95;;
13439;SDS011;6792;57.698;11.946;2022-08-04T01:42:19;7.97;;;3.77;;
13439;SDS011;6792;57.698;11.946;2022-08-04T01:44:54;10.40;;;3.92;;
13439;SDS011;6792;57.698;11.946;2022-08-04T01:47:27;14.40;;;3.85;;
13439;SDS011;6792;57.698;11.946;2022-08-04T01:50:04;11.83;;;3.80;;
13439;SDS011;6792;57.698;11.946;2022-08-04T01:52:36;11.28;;;3.85;;
13439;SDS011;6792;57.698;11.946;2022-08-04T01:55:08;12.75;;;4.17;;
13439;SDS011;6792;57.698;11.946;2022-08-04T01:57:41;10.98;;;3.58;;
13439;SDS011;6792;57.698;11.946;2022-08-04T02:00:13;11.63;;;3.90;;
13439;SDS011;6792;57.698;11.946;2022-08-04T02:02:44;9.23;;;3.37;;
13439;SDS011;6792;57.698;11.946;2022-08-04T02:05:17;8.23;;;3.22;;
13439;SDS011;6792;57.698;11.946;2022-08-04T02:08:01;15.32;;;3.62;;
13439;SDS011;6792;57.698;11.946;2022-08-04T02:10:50;11.70;;;3.33;;
13439;SDS011;6792;57.698;11.946;2022-08-04T02:13:37;10.28;;;3.70;;
13439;SDS011;6792;57.698;11.946;2022-08-04T02:16:09;9.60;;;3.83;;
13439;SDS011;6792;57.698;11.946;2022-08-04T02:18:41;10.68;;;4.15;;
13439;SDS011;6792;57.698;11.946;2022-08-04T02:21:12;11.40;;;3.98;;
13439;SDS011;6792;57.698;11.946;2022-08-04T02:23:50;14.05;;;4.45;;
13439;SDS011;6792;57.698;11.946;2022-08-04T02:26:20;11.10;;;4.08;;
13439;SDS011;6792;57.698;11.946;2022-08-04T02:28:52;14.93;;;4.42;;
13439;SDS011;6792;57.698;11.946;2022-08-04T02:31:28;14.20;;;3.90;;
13439;SDS011;6792;57.698;11.946;2022-08-04T02:34:00;11.48;;;4.08;;
13439;SDS011;6792;57.698;11.946;2022-08-04T02:36:35;8.73;;;4.08;;
13439;SDS011;6792;57.698;11.946;2022-08-04T02:39:07;15.23;;;4.00;;
13439;SDS011;6792;57.698;11.946;2022-08-04T02:41:40;11.20;;;3.42;;
13439;SDS011;6792;57.698;11.946;2022-08-04T02:44:10;10.15;;;3.87;;
13439;SDS011;6792;57.698;11.946;2022-08-04T02:46:43;10.15;;;4.00;;
13439;SDS011;6792;57.698;11.946;2022-08-04T02:49:32;10.93;;;3.90;;
13439;SDS011;6792;57.698;11.946;2022-08-04T02:52:04;12.30;;;4.15;;
13439;SDS011;6792;57.698;11.946;2022-08-04T02:54:37;9.15;;;4.08;;
13439;SDS011;6792;57.698;11.946;2022-08-04T02:57:08;12.50;;;4.10;;
13439;SDS011;6792;57.698;11.946;2022-08-04T02:59:43;10.80;;;4.03;;
13439;SDS011;6792;57.698;11.946;2022-08-04T03:02:21;8.10;;;3.65;;
13439;SDS011;6792;57.698;11.946;2022-08-04T03:04:54;8.00;;;3.77;;
13439;SDS011;6792;57.698;11.946;2022-08-04T03:07:50;8.93;;;4.20;;
13439;SDS011;6792;57.698;11.946;2022-08-04T03:10:30;8.83;;;3.60;;
13439;SDS011;6792;57.698;11.946;2022-08-04T03:16:13;10.68;;;3.47;;
13439;SDS011;6792;57.698;11.946;2022-08-04T03:22:37;11.48;;;3.70;;
13439;SDS011;6792;57.698;11.946;2022-08-04T03:25:28;9.45;;;3.42;;
13439;SDS011;6792;57.698;11.946;2022-08-04T03:28:26;8.63;;;3.52;;
13439;SDS011;6792;57.698;11.946;2022-08-04T03:34:31;10.30;;;3.42;;
13439;SDS011;6792;57.698;11.946;2022-08-04T03:37:28;11.78;;;3.58;;
13439;SDS011;6792;57.698;11.946;2022-08-04T03:40:23;9.65;;;3.75;;
13439;SDS011;6792;57.698;11.946;2022-08-04T03:43:14;7.15;;;3.37;;
13439;SDS011;6792;57.698;11.946;2022-08-04T03:52:03;9.43;;;3.55;;
13439;SDS011;6792;57.698;11.946;2022-08-04T03:55:01;9.60;;;3.47;;
13439;SDS011;6792;57.698;11.946;2022-08-04T04:01:16;11.78;;;3.42;;
13439;SDS011;6792;57.698;11.946;2022-08-04T04:03:56;9.10;;;3.70;;
13439;SDS011;6792;57.698;11.946;2022-08-04T04:06:46;8.75;;;3.25;;
13439;SDS011;6792;57.698;11.946;2022-08-04T04:09:34;6.87;;;3.17;;
13439;SDS011;6792;57.698;11.946;2022-08-04T04:12:30;11.57;;;3.65;;
13439;SDS011;6792;57.698;11.946;2022-08-04T04:15:27;10.05;;;3.27;;
13439;SDS011;6792;57.698;11.946;2022-08-04T04:18:12;5.85;;;3.62;;
13439;SDS011;6792;57.698;11.946;2022-08-04T04:20:50;10.90;;;3.45;;
13439;SDS011;6792;57.698;11.946;2022-08-04T04:23:35;10.78;;;3.92;;
13439;SDS011;6792;57.698;11.946;2022-08-04T04:26:17;6.72;;;2.75;;
13439;SDS011;6792;57.698;11.946;2022-08-04T04:29:00;8.90;;;3.30;;
13439;SDS011;6792;57.698;11.946;2022-08-04T04:31:48;7.60;;;3.10;;
13439;SDS011;6792;57.698;11.946;2022-08-04T04:34:25;8.93;;;3.60;;
13439;SDS011;6792;57.698;11.946;2022-08-04T04:37:07;8.85;;;4.10;;
13439;SDS011;6792;57.698;11.946;2022-08-04T04:39:51;8.90;;;3.10;;
13439;SDS011;6792;57.698;11.946;2022-08-04T04:42:43;13.38;;;3.20;;
13439;SDS011;6792;57.698;11.946;2022-08-04T04:45:28;10.58;;;3.17;;
13439;SDS011;6792;57.698;11.946;2022-08-04T04:48:02;10.48;;;3.45;;
13439;SDS011;6792;57.698;11.946;2022-08-04T04:50:49;7.33;;;3.22;;
13439;SDS011;6792;57.698;11.946;2022-08-04T04:53:23;9.18;;;3.60;;
13439;SDS011;6792;57.698;11.946;2022-08-04T04:55:58;8.45;;;3.40;;
13439;SDS011;6792;57.698;11.946;2022-08-04T04:58:32;5.50;;;2.50;;
13439;SDS011;6792;57.698;11.946;2022-08-04T05:04:26;11.15;;;3.92;;
13439;SDS011;6792;57.698;11.946;2022-08-04T05:07:16;10.45;;;3.10;;
13439;SDS011;6792;57.698;11.946;2022-08-04T05:09:53;6.00;;;2.85;;
13439;SDS011;6792;57.698;11.946;2022-08-04T05:12:33;8.35;;;3.42;;
13439;SDS011;6792;57.698;11.946;2022-08-04T05:15:22;8.90;;;2.58;;
13439;SDS011;6792;57.698;11.946;2022-08-04T05:17:54;7.47;;;3.62;;
13439;SDS011;6792;57.698;11.946;2022-08-04T05:20:28;7.92;;;2.98;;
13439;SDS011;6792;57.698;11.946;2022-08-04T05:23:02;7.50;;;3.40;;
13439;SDS011;6792;57.698;11.946;2022-08-04T05:25:34;5.67;;;3.08;;
13439;SDS011;6792;57.698;11.946;2022-08-04T05:28:17;9.63;;;3.22;;
13439;SDS011;6792;57.698;11.946;2022-08-04T05:30:52;8.30;;;2.90;;
13439;SDS011;6792;57.698;11.946;2022-08-04T05:33:21;9.68;;;2.98;;
13439;SDS011;6792;57.698;11.946;2022-08-04T05:35:54;10.00;;;3.20;;
13439;SDS011;6792;57.698;11.946;2022-08-04T05:38:35;8.43;;;3.05;;
13439;SDS011;6792;57.698;11.946;2022-08-04T05:41:07;6.60;;;2.83;;
13439;SDS011;6792;57.698;11.946;2022-08-04T05:43:37;10.45;;;3.50;;
13439;SDS011;6792;57.698;11.946;2022-08-04T05:46:08;11.40;;;3.20;;
13439;SDS011;6792;57.698;11.946;2022-08-04T05:48:38;11.57;;;2.60;;
13439;SDS011;6792;57.698;11.946;2022-08-04T05:51:09;6.30;;;2.80;;
13439;SDS011;6792;57.698;11.946;2022-08-04T05:53:38;9.13;;;2.58;;
13439;SDS011;6792;57.698;11.946;2022-08-04T05:56:09;8.23;;;2.65;;
13439;SDS011;6792;57.698;11.946;2022-08-04T05:58:40;7.35;;;3.50;;
13439;SDS011;6792;57.698;11.946;2022-08-04T06:01:12;5.53;;;3.15;;
13439;SDS011;6792;57.698;11.946;2022-08-04T06:03:46;6.62;;;2.90;;
13439;SDS011;6792;57.698;11.946;2022-08-04T06:06:17;9.35;;;3.12;;
13439;SDS011;6792;57.698;11.946;2022-08-04T06:08:47;6.65;;;3.27;;
13439;SDS011;6792;57.698;11.946;2022-08-04T06:11:20;4.47;;;3.02;;
13439;SDS011;6792;57.698;11.946;2022-08-04T06:13:52;8.63;;;2.92;;
13439;SDS011;6792;57.698;11.946;2022-08-04T06:16:23;7.62;;;3.00;;
13439;SDS011;6792;57.698;11.946;2022-08-04T06:18:56;7.05;;;2.45;;
13439;SDS011;6792;57.698;11.946;2022-08-04T06:21:27;6.37;;;2.65;;
13439;SDS011;6792;57.698;11.946;2022-08-04T06:23:58;6.75;;;2.25;;
13439;SDS011;6792;57.698;11.946;2022-08-04T06:26:29;5.87;;;2.47;;
13439;SDS011;6792;57.698;11.946;2022-08-04T06:29:01;5.42;;;1.80;;
13439;SDS011;6792;57.698;11.946;2022-08-04T06:31:36;4.50;;;2.25;;
13439;SDS011;6792;57.698;11.946;2022-08-04T06:34:11;3.58;;;2.22;;
13439;SDS011;6792;57.698;11.946;2022-08-04T06:36:42;6.33;;;1.80;;
13439;SDS011;6792;57.698;11.946;2022-08-04T06:39:18;5.10;;;2.42;;
13439;SDS011;6792;57.698;11.946;2022-08-04T06:41:49;4.60;;;1.87;;
13439;SDS011;6792;57.698;11.946;2022-08-04T06:44:18;5.40;;;1.92;;
13439;SDS011;6792;57.698;11.946;2022-08-04T06:46:51;5.20;;;1.95;;
13439;SDS011;6792;57.698;11.946;2022-08-04T06:49:20;4.28;;;1.95;;
13439;SDS011;6792;57.698;11.946;2022-08-04T06:51:53;3.85;;;1.90;;
13439;SDS011;6792;57.698;11.946;2022-08-04T06:54:23;3.67;;;1.65;;
13439;SDS011;6792;57.698;11.946;2022-08-04T06:56:52;4.62;;;1.55;;
13439;SDS011;6792;57.698;11.946;2022-08-04T06:59:24;4.62;;;1.70;;
13439;SDS011;6792;57.698;11.946;2022-08-04T07:01:54;2.42;;;1.80;;
13439;SDS011;6792;57.698;11.946;2022-08-04T07:04:25;4.72;;;1.90;;
13439;SDS011;6792;57.698;11.946;2022-08-04T07:06:54;4.20;;;1.60;;
13439;SDS011;6792;57.698;11.946;2022-08-04T07:09:23;1.90;;;1.50;;
13439;SDS011;6792;57.698;11.946;2022-08-04T07:11:52;4.92;;;2.20;;
13439;SDS011;6792;57.698;11.946;2022-08-04T07:14:22;4.92;;;2.00;;
13439;SDS011;6792;57.698;11.946;2022-08-04T07:16:52;4.65;;;2.00;;
13439;SDS011;6792;57.698;11.946;2022-08-04T07:19:22;5.80;;;2.08;;
13439;SDS011;6792;57.698;11.946;2022-08-04T07:21:51;3.85;;;1.80;;
13439;SDS011;6792;57.698;11.946;2022-08-04T07:24:22;5.80;;;1.57;;
13439;SDS011;6792;57.698;11.946;2022-08-04T07:26:56;2.15;;;1.57;;
13439;SDS011;6792;57.698;11.946;2022-08-04T07:29:26;5.35;;;2.05;;
13439;SDS011;6792;57.698;11.946;2022-08-04T07:31:56;2.62;;;1.47;;
13439;SDS011;6792;57.698;11.946;2022-08-04T07:34:26;3.77;;;1.65;;
13439;SDS011;6792;57.698;11.946;2022-08-04T07:36:58;7.30;;;1.80;;
13439;SDS011;6792;57.698;11.946;2022-08-04T07:39:28;5.25;;;1.80;;
13439;SDS011;6792;57.698;11.946;2022-08-04T07:42:00;2.10;;;1.70;;
13439;SDS011;6792;57.698;11.946;2022-08-04T07:44:31;4.33;;;1.85;;
13439;SDS011;6792;57.698;11.946;2022-08-04T07:49:47;4.80;;;1.75;;
13439;SDS011;6792;57.698;11.946;2022-08-04T07:52:17;3.75;;;1.70;;
13439;SDS011;6792;57.698;11.946;2022-08-04T07:54:49;3.10;;;1.70;;
13439;SDS011;6792;57.698;11.946;2022-08-04T07:57:22;3.05;;;1.67;;
13439;SDS011;6792;57.698;11.946;2022-08-04T07:59:51;2.17;;;1.72;;
13439;SDS011;6792;57.698;11.946;2022-08-04T08:02:20;4.90;;;1.60;;
13439;SDS011;6792;57.698;11.946;2022-08-04T08:04:51;1.65;;;1.52;;
13439;SDS011;6792;57.698;11.946;2022-08-04T08:07:24;5.60;;;1.95;;
13439;SDS011;6792;57.698;11.946;2022-08-04T08:09:53;3.33;;;1.80;;
13439;SDS011;6792;57.698;11.946;2022-08-04T08:12:24;2.90;;;1.57;;
13439;SDS011;6792;57.698;11.946;2022-08-04T08:14:55;4.50;;;1.98;;
13439;SDS011;6792;57.698;11.946;2022-08-04T08:17:28;3.25;;;1.50;;
13439;SDS011;6792;57.698;11.946;2022-08-04T08:20:01;2.35;;;1.50;;
13439;SDS011;6792;57.698;11.946;2022-08-04T08:22:34;2.05;;;1.70;;
13439;SDS011;6792;57.698;11.946;2022-08-04T08:25:04;3.12;;;1.62;;
13439;SDS011;6792;57.698;11.946;2022-08-04T08:27:36;5.25;;;1.77;;
13439;SDS011;6792;57.698;11.946;2022-08-04T08:30:08;4.25;;;1.50;;
13439;SDS011;6792;57.698;11.946;2022-08-04T08:32:37;2.37;;;1.42;;
13439;SDS011;6792;57.698;11.946;2022-08-04T08:35:11;2.20;;;1.67;;
13439;SDS011;6792;57.698;11.946;2022-08-04T08:37:41;2.05;;;1.22;;
13439;SDS011;6792;57.698;11.946;2022-08-04T08:40:20;4.58;;;1.47;;
13439;SDS011;6792;57.698;11.946;2022-08-04T08:43:10;4.45;;;1.77;;
13439;SDS011;6792;57.698;11.946;2022-08-04T08:45:55;5.53;;;2.02;;
13439;SDS011;6792;57.698;11.946;2022-08-04T08:48:57;2.05;;;1.32;;
13439;SDS011;6792;57.698;11.946;2022-08-04T08:51:46;2.62;;;1.67;;
13439;SDS011;6792;57.698;11.946;2022-08-04T08:57:19;1.62;;;1.40;;
13439;SDS011;6792;57.698;11.946;2022-08-04T08:59:54;1.95;;;1.32;;
13439;SDS011;6792;57.698;11.946;2022-08-04T09:05:44;2.87;;;1.80;;
13439;SDS011;6792;57.698;11.946;2022-08-04T09:08:47;3.20;;;1.62;;
13439;SDS011;6792;57.698;11.946;2022-08-04T09:11:33;6.92;;;1.80;;
13439;SDS011;6792;57.698;11.946;2022-08-04T09:14:09;2.12;;;1.37;;
13439;SDS011;6792;57.698;11.946;2022-08-04T09:16:48;2.00;;;1.40;;
13439;SDS011;6792;57.698;11.946;2022-08-04T09:19:24;3.95;;;1.57;;
13439;SDS011;6792;57.698;11.946;2022-08-04T09:22:04;2.55;;;1.60;;
13439;SDS011;6792;57.698;11.946;2022-08-04T09:24:45;2.17;;;1.42;;
13439;SDS011;6792;57.698;11.946;2022-08-04T09:27:19;3.12;;;1.70;;
13439;SDS011;6792;57.698;11.946;2022-08-04T09:29:56;3.77;;;1.20;;
13439;SDS011;6792;57.698;11.946;2022-08-04T09:32:33;4.12;;;1.37;;
13439;SDS011;6792;57.698;11.946;2022-08-04T09:35:12;4.03;;;1.35;;
13439;SDS011;6792;57.698;11.946;2022-08-04T09:37:43;4.65;;;1.65;;
13439;SDS011;6792;57.698;11.946;2022-08-04T09:40:19;3.42;;;1.70;;
13439;SDS011;6792;57.698;11.946;2022-08-04T09:42:55;4.87;;;1.50;;
13439;SDS011;6792;57.698;11.946;2022-08-04T09:45:31;3.37;;;1.80;;
13439;SDS011;6792;57.698;11.946;2022-08-04T09:48:04;2.65;;;1.52;;
13439;SDS011;6792;57.698;11.946;2022-08-04T09:50:36;1.98;;;1.50;;
13439;SDS011;6792;57.698;11.946;2022-08-04T09:53:09;2.30;;;1.70;;
13439;SDS011;6792;57.698;11.946;2022-08-04T09:55:54;2.22;;;1.72;;
13439;SDS011;6792;57.698;11.946;2022-08-04T09:58:36;2.92;;;1.75;;
13439;SDS011;6792;57.698;11.946;2022-08-04T10:01:27;2.95;;;1.67;;
13439;SDS011;6792;57.698;11.946;2022-08-04T10:04:00;2.72;;;1.52;;
13439;SDS011;6792;57.698;11.946;2022-08-04T10:07:00;3.30;;;1.85;;
13439;SDS011;6792;57.698;11.946;2022-08-04T10:09:54;3.87;;;1.87;;
13439;SDS011;6792;57.698;11.946;2022-08-04T10:12:30;3.45;;;1.72;;
13439;SDS011;6792;57.698;11.946;2022-08-04T10:15:09;2.65;;;1.60;;
13439;SDS011;6792;57.698;11.946;2022-08-04T10:21:00;4.12;;;2.20;;
13439;SDS011;6792;57.698;11.946;2022-08-04T10:23:33;3.10;;;1.95;;
13439;SDS011;6792;57.698;11.946;2022-08-04T10:26:10;3.27;;;1.87;;
13439;SDS011;6792;57.698;11.946;2022-08-04T10:28:45;4.03;;;2.20;;
13439;SDS011;6792;57.698;11.946;2022-08-04T10:31:20;4.53;;;2.10;;
13439;SDS011;6792;57.698;11.946;2022-08-04T10:33:53;7.70;;;2.10;;
13439;SDS011;6792;57.698;11.946;2022-08-04T10:36:29;3.98;;;1.90;;
13439;SDS011;6792;57.698;11.946;2022-08-04T10:39:03;6.67;;;2.40;;
13439;SDS011;6792;57.698;11.946;2022-08-04T10:41:36;4.50;;;1.77;;
13439;SDS011;6792;57.698;11.946;2022-08-04T10:44:31;4.25;;;1.77;;
13439;SDS011;6792;57.698;11.946;2022-08-04T10:47:02;5.03;;;1.80;;
13439;SDS011;6792;57.698;11.946;2022-08-04T10:52:23;5.70;;;2.00;;
13439;SDS011;6792;57.698;11.946;2022-08-04T10:55:01;5.72;;;2.15;;
13439;SDS011;6792;57.698;11.946;2022-08-04T10:57:35;7.47;;;2.47;;
13439;SDS011;6792;57.698;11.946;2022-08-04T11:00:12;8.00;;;2.22;;
13439;SDS011;6792;57.698;11.946;2022-08-04T11:02:52;7.80;;;2.37;;
13439;SDS011;6792;57.698;11.946;2022-08-04T11:05:28;4.87;;;2.30;;
13439;SDS011;6792;57.698;11.946;2022-08-04T11:08:02;2.60;;;1.90;;
13439;SDS011;6792;57.698;11.946;2022-08-04T11:10:32;3.72;;;2.10;;
13439;SDS011;6792;57.698;11.946;2022-08-04T11:13:21;4.85;;;2.15;;
13439;SDS011;6792;57.698;11.946;2022-08-04T11:16:01;4.87;;;2.10;;
13439;SDS011;6792;57.698;11.946;2022-08-04T11:18:34;9.25;;;2.40;;
13439;SDS011;6792;57.698;11.946;2022-08-04T11:21:10;6.37;;;2.17;;
13439;SDS011;6792;57.698;11.946;2022-08-04T11:23:55;9.18;;;2.40;;
13439;SDS011;6792;57.698;11.946;2022-08-04T11:26:20;7.53;;;2.42;;
13439;SDS011;6792;57.698;11.946;2022-08-04T11:28:55;9.10;;;2.67;;
13439;SDS011;6792;57.698;11.946;2022-08-04T11:31:25;8.53;;;2.77;;
13439;SDS011;6792;57.698;11.946;2022-08-04T11:34:00;5.28;;;2.15;;
13439;SDS011;6792;57.698;11.946;2022-08-04T11:36:35;7.05;;;2.35;;
13439;SDS011;6792;57.698;11.946;2022-08-04T11:39:14;5.40;;;1.80;;
13439;SDS011;6792;57.698;11.946;2022-08-04T11:41:50;10.68;;;2.30;;
13439;SDS011;6792;57.698;11.946;2022-08-04T11:44:28;6.30;;;2.30;;
13439;SDS011;6792;57.698;11.946;2022-08-04T11:47:01;5.80;;;2.15;;
13439;SDS011;6792;57.698;11.946;2022-08-04T11:49:34;5.95;;;1.90;;
13439;SDS011;6792;57.698;11.946;2022-08-04T11:52:07;5.87;;;1.82;;
13439;SDS011;6792;57.698;11.946;2022-08-04T11:54:41;4.50;;;1.70;;
13439;SDS011;6792;57.698;11.946;2022-08-04T11:57:13;4.58;;;1.70;;
13439;SDS011;6792;57.698;11.946;2022-08-04T11:59:58;7.22;;;1.95;;
13439;SDS011;6792;57.698;11.946;2022-08-04T12:05:54;5.33;;;1.80;;
13439;SDS011;6792;57.698;11.946;2022-08-04T12:08:28;3.20;;;1.77;;
13439;SDS011;6792;57.698;11.946;2022-08-04T12:11:00;3.92;;;1.57;;
13439;SDS011;6792;57.698;11.946;2022-08-04T12:13:38;8.00;;;2.47;;
13439;SDS011;6792;57.698;11.946;2022-08-04T12:16:24;3.33;;;1.77;;
13439;SDS011;6792;57.698;11.946;2022-08-04T12:18:57;7.28;;;1.65;;
13439;SDS011;6792;57.698;11.946;2022-08-04T12:21:30;3.87;;;1.95;;
13439;SDS011;6792;57.698;11.946;2022-08-04T12:24:06;3.85;;;1.70;;
13439;SDS011;6792;57.698;11.946;2022-08-04T12:26:39;4.65;;;2.08;;
13439;SDS011;6792;57.698;11.946;2022-08-04T12:29:11;4.58;;;1.80;;
13439;SDS011;6792;57.698;11.946;2022-08-04T12:31:51;5.15;;;2.35;;
13439;SDS011;6792;57.698;11.946;2022-08-04T12:34:38;8.00;;;1.80;;
13439;SDS011;6792;57.698;11.946;2022-08-04T12:37:11;4.67;;;1.85;;
13439;SDS011;6792;57.698;11.946;2022-08-04T12:39:47;4.53;;;1.67;;
13439;SDS011;6792;57.698;11.946;2022-08-04T12:42:21;3.17;;;1.65;;
13439;SDS011;6792;57.698;11.946;2022-08-04T12:44:55;6.50;;;2.02;;
13439;SDS011;6792;57.698;11.946;2022-08-04T12:47:27;2.50;;;1.50;;
13439;SDS011;6792;57.698;11.946;2022-08-04T12:49:58;8.43;;;1.75;;
13439;SDS011;6792;57.698;11.946;2022-08-04T12:52:30;10.23;;;1.90;;
13439;SDS011;6792;57.698;11.946;2022-08-04T12:55:04;5.80;;;1.70;;
13439;SDS011;6792;57.698;11.946;2022-08-04T12:57:35;2.12;;;1.70;;
13439;SDS011;6792;57.698;11.946;2022-08-04T13:00:07;6.75;;;1.95;;
13439;SDS011;6792;57.698;11.946;2022-08-04T13:02:38;4.12;;;1.30;;
13439;SDS011;6792;57.698;11.946;2022-08-04T13:05:12;5.87;;;2.05;;
13439;SDS011;6792;57.698;11.946;2022-08-04T13:07:45;5.08;;;1.30;;
13439;SDS011;6792;57.698;11.946;2022-08-04T13:10:19;2.72;;;1.45;;
13439;SDS011;6792;57.698;11.946;2022-08-04T13:12:54;5.12;;;1.65;;
13439;SDS011;6792;57.698;11.946;2022-08-04T13:15:27;5.22;;;1.80;;
13439;SDS011;6792;57.698;11.946;2022-08-04T13:18:00;4.60;;;1.50;;
13439;SDS011;6792;57.698;11.946;2022-08-04T13:20:32;3.80;;;1.47;;
13439;SDS011;6792;57.698;11.946;2022-08-04T13:23:08;3.70;;;1.55;;
13439;SDS011;6792;57.698;11.946;2022-08-04T13:25:45;3.47;;;1.50;;
13439;SDS011;6792;57.698;11.946;2022-08-04T13:28:18;4.17;;;1.75;;
13439;SDS011;6792;57.698;11.946;2022-08-04T13:30:52;3.50;;;1.72;;
13439;SDS011;6792;57.698;11.946;2022-08-04T13:33:21;4.42;;;1.40;;
13439;SDS011;6792;57.698;11.946;2022-08-04T13:35:58;4.87;;;1.70;;
13439;SDS011;6792;57.698;11.946;2022-08-04T13:38:29;3.62;;;1.55;;
13439;SDS011;6792;57.698;11.946;2022-08-04T13:41:05;2.60;;;1.37;;
13439;SDS011;6792;57.698;11.946;2022-08-04T13:43:40;4.67;;;1.57;;
13439;SDS011;6792;57.698;11.946;2022-08-04T13:46:21;4.42;;;1.62;;
13439;SDS011;6792;57.698;11.946;2022-08-04T13:48:57;4.22;;;1.67;;
13439;SDS011;6792;57.698;11.946;2022-08-04T13:51:32;1.90;;;1.50;;
13439;SDS011;6792;57.698;11.946;2022-08-04T13:54:06;5.30;;;2.22;;
13439;SDS011;6792;57.698;11.946;2022-08-04T13:57:18;3.05;;;1.70;;
13439;SDS011;6792;57.698;11.946;2022-08-04T14:02:49;3.85;;;1.60;;
13439;SDS011;6792;57.698;11.946;2022-08-04T14:05:23;4.97;;;1.80;;
13439;SDS011;6792;57.698;11.946;2022-08-04T14:07:59;6.35;;;2.05;;
13439;SDS011;6792;57.698;11.946;2022-08-04T14:10:35;5.42;;;2.15;;
13439;SDS011;6792;57.698;11.946;2022-08-04T14:13:06;8.85;;;2.37;;
13439;SDS011;6792;57.698;11.946;2022-08-04T14:15:51;2.67;;;2.17;;
13439;SDS011;6792;57.698;11.946;2022-08-04T14:18:25;12.18;;;2.58;;
13439;SDS011;6792;57.698;11.946;2022-08-04T14:21:05;10.10;;;2.60;;
13439;SDS011;6792;57.698;11.946;2022-08-04T14:23:58;7.50;;;1.90;;
13439;SDS011;6792;57.698;11.946;2022-08-04T14:26:32;14.18;;;2.42;;
13439;SDS011;6792;57.698;11.946;2022-08-04T14:29:07;10.72;;;2.35;;
13439;SDS011;6792;57.698;11.946;2022-08-04T14:31:37;8.30;;;2.17;;
13439;SDS011;6792;57.698;11.946;2022-08-04T14:34:11;12.43;;;2.75;;
13439;SDS011;6792;57.698;11.946;2022-08-04T14:37:06;8.38;;;2.02;;
13439;SDS011;6792;57.698;11.946;2022-08-04T14:39:50;7.25;;;2.22;;
13439;SDS011;6792;57.698;11.946;2022-08-04T14:42:24;10.00;;;1.75;;
13439;SDS011;6792;57.698;11.946;2022-08-04T14:45:08;5.62;;;1.77;;
13439;SDS011;6792;57.698;11.946;2022-08-04T14:47:38;7.78;;;1.67;;
13439;SDS011;6792;57.698;11.946;2022-08-04T14:50:18;3.27;;;1.25;;
13439;SDS011;6792;57.698;11.946;2022-08-04T14:52:49;5.58;;;1.22;;
13439;SDS011;6792;57.698;11.946;2022-08-04T14:55:24;6.87;;;1.62;;
13439;SDS011;6792;57.698;11.946;2022-08-04T14:57:56;8.08;;;1.17;;
13439;SDS011;6792;57.698;11.946;2022-08-04T15:00:28;5.30;;;1.27;;
13439;SDS011;6792;57.698;11.946;2022-08-04T15:03:02;7.37;;;1.40;;
13439;SDS011;6792;57.698;11.946;2022-08-04T15:05:34;7.00;;;1.42;;
13439;SDS011;6792;57.698;11.946;2022-08-04T15:08:06;11.10;;;1.65;;
13439;SDS011;6792;57.698;11.946;2022-08-04T15:10:35;8.95;;;1.30;;
13439;SDS011;6792;57.698;11.946;2022-08-04T15:13:05;7.90;;;1.12;;
13439;SDS011;6792;57.698;11.946;2022-08-04T15:15:36;11.33;;;1.67;;
13439;SDS011;6792;57.698;11.946;2022-08-04T15:18:11;6.00;;;1.37;;
13439;SDS011;6792;57.698;11.946;2022-08-04T15:20:48;2.25;;;1.02;;
13439;SDS011;6792;57.698;11.946;2022-08-04T15:23:18;6.10;;;0.98;;
13439;SDS011;6792;57.698;11.946;2022-08-04T15:25:52;5.47;;;1.10;;
13439;SDS011;6792;57.698;11.946;2022-08-04T15:28:20;4.50;;;1.40;;
13439;SDS011;6792;57.698;11.946;2022-08-04T15:30:52;3.90;;;1.55;;
13439;SDS011;6792;57.698;11.946;2022-08-04T15:33:30;4.40;;;1.70;;
13439;SDS011;6792;57.698;11.946;2022-08-04T15:36:08;5.40;;;1.32;;
13439;SDS011;6792;57.698;11.946;2022-08-04T15:38:58;3.00;;;1.10;;
13439;SDS011;6792;57.698;11.946;2022-08-04T15:41:22;4.67;;;1.20;;
13439;SDS011;6792;57.698;11.946;2022-08-04T15:43:57;2.95;;;1.20;;
13439;SDS011;6792;57.698;11.946;2022-08-04T15:49:45;4.87;;;1.07;;
13439;SDS011;6792;57.698;11.946;2022-08-04T15:55:29;5.17;;;1.25;;
13439;SDS011;6792;57.698;11.946;2022-08-04T15:57:59;1.92;;;0.90;;
13439;SDS011;6792;57.698;11.946;2022-08-04T16:03:40;2.75;;;1.20;;
13439;SDS011;6792;57.698;11.946;2022-08-04T16:09:29;6.45;;;2.00;;
13439;SDS011;6792;57.698;11.946;2022-08-04T16:12:01;5.62;;;1.70;;
13439;SDS011;6792;57.698;11.946;2022-08-04T16:14:34;7.22;;;2.15;;
13439;SDS011;6792;57.698;11.946;2022-08-04T16:17:23;7.50;;;2.40;;
13439;SDS011;6792;57.698;11.946;2022-08-04T16:20:00;7.15;;;2.20;;
13439;SDS011;6792;57.698;11.946;2022-08-04T16:22:38;7.10;;;2.15;;
13439;SDS011;6792;57.698;11.946;2022-08-04T16:25:07;6.37;;;2.30;;
13439;SDS011;6792;57.698;11.946;2022-08-04T16:27:38;11.55;;;2.80;;
13439;SDS011;6792;57.698;11.946;2022-08-04T16:30:11;12.18;;;3.08;;
13439;SDS011;6792;57.698;11.946;2022-08-04T16:32:44;7.22;;;2.33;;
13439;SDS011;6792;57.698;11.946;2022-08-04T16:35:22;8.58;;;2.50;;
13439;SDS011;6792;57.698;11.946;2022-08-04T16:37:54;10.60;;;2.85;;
13439;SDS011;6792;57.698;11.946;2022-08-04T16:40:40;11.05;;;2.92;;
13439;SDS011;6792;57.698;11.946;2022-08-04T16:43:11;10.72;;;2.60;;